Time;durP1;ratioP1;P1;durP2;ratioP2;P2;SDS_P1;SDS_P2;PMS_P1;PMS_P2;Temp;Humidity;BMP_temperature;BMP_pressure;BME280_temperature;BME280_humidity;BME280_pressure;Samples;Min_cycle;Max_cycle;Signal;HPM_P1;HPM_P2
2023/10/09 00:01:09;;;;;;;7.97;5.25;;;17.30;99.90;;;;;;4982025;28;20046;-80
2023/10/09 00:03:06;;;;;;;10.85;5.60;;;17.30;99.90;;;;;;5063160;28;20827;-80
2023/10/09 00:08:16;;;;;;;8.73;5.82;;;17.30;99.90;;;;;;5071318;28;20035;-80
2023/10/09 00:10:54;;;;;;;9.18;5.55;;;17.30;99.90;;;;;;5071219;28;20024;-79
2023/10/09 00:13:28;;;;;;;8.32;5.38;;;17.30;99.90;;;;;;5070927;28;20075;-80
2023/10/09 00:15:59;;;;;;;8.27;5.60;;;17.30;99.90;;;;;;5052179;28;20047;-79
2023/10/09 00:18:29;;;;;;;9.50;5.53;;;17.20;99.90;;;;;;5071539;28;20103;-80
2023/10/09 00:21:00;;;;;;;10.05;5.65;;;17.20;99.90;;;;;;5070330;28;20029;-80
2023/10/09 00:23:27;;;;;;;6.78;5.00;;;17.30;99.90;;;;;;5071121;28;20032;-80
2023/10/09 00:26:16;;;;;;;8.48;5.20;;;17.30;99.90;;;;;;5070474;28;20127;-80
2023/10/09 00:28:47;;;;;;;7.38;5.50;;;17.20;99.90;;;;;;5070149;28;20040;-81
2023/10/09 00:31:16;;;;;;;12.25;5.85;;;17.30;99.90;;;;;;5070634;28;20049;-80
2023/10/09 00:33:45;;;;;;;6.45;4.78;;;17.30;99.90;;;;;;5070652;28;20069;-80
2023/10/09 00:36:12;;;;;;;9.88;5.78;;;17.20;99.90;;;;;;5070929;28;20119;-80
2023/10/09 00:38:51;;;;;;;8.77;5.40;;;17.20;99.90;;;;;;5070885;28;20032;-80
2023/10/09 00:41:20;;;;;;;8.00;5.47;;;17.20;99.90;;;;;;5071504;28;20032;-81
2023/10/09 00:43:49;;;;;;;7.47;4.60;;;17.20;99.90;;;;;;5052662;28;20031;-80
2023/10/09 00:48:49;;;;;;;9.18;5.07;;;17.20;99.90;;;;;;5070817;28;20032;-79
2023/10/09 00:51:21;;;;;;;9.18;4.80;;;17.10;99.90;;;;;;5071118;28;20055;-79
2023/10/09 00:54:07;;;;;;;7.28;4.60;;;17.10;99.90;;;;;;5070532;28;20116;-79
2023/10/09 00:56:43;;;;;;;7.50;4.72;;;17.10;99.90;;;;;;5070923;28;20044;-79
2023/10/09 00:59:16;;;;;;;8.57;5.20;;;17.10;99.90;;;;;;5070627;28;20021;-79
2023/10/09 01:01:55;;;;;;;7.85;5.03;;;17.10;99.90;;;;;;5070479;28;20036;-79
2023/10/09 01:04:22;;;;;;;5.47;4.88;;;17.00;99.90;;;;;;5071332;28;20062;-79
2023/10/09 01:07:04;;;;;;;10.02;5.20;;;17.00;99.90;;;;;;5069843;28;20450;-79
2023/10/09 01:09:36;;;;;;;8.27;5.05;;;17.00;99.90;;;;;;5071195;28;20090;-80
2023/10/09 01:14:27;;;;;;;5.95;4.53;;;16.90;99.90;;;;;;5070595;28;20036;-80
2023/10/09 01:16:54;;;;;;;5.75;4.60;;;16.90;99.90;;;;;;5069824;28;20032;-80
2023/10/09 01:19:23;;;;;;;7.30;4.28;;;16.80;99.90;;;;;;5070665;28;20074;-80
2023/10/09 01:21:53;;;;;;;7.43;5.00;;;16.80;99.90;;;;;;5070336;28;20028;-80
2023/10/09 01:24:19;;;;;;;7.93;5.47;;;16.70;99.90;;;;;;5052745;28;20025;-80
2023/10/09 01:26:46;;;;;;;8.07;5.05;;;16.70;99.90;;;;;;5070583;28;20083;-80
2023/10/09 01:29:18;;;;;;;6.85;4.88;;;16.70;99.90;;;;;;5070406;28;20027;-80
2023/10/09 01:31:54;;;;;;;7.13;5.22;;;16.70;99.90;;;;;;5052300;28;20034;-81
2023/10/09 01:34:24;;;;;;;8.30;5.25;;;16.60;99.90;;;;;;5070863;28;20443;-80
2023/10/09 01:36:53;;;;;;;7.05;5.22;;;16.60;99.90;;;;;;5070114;28;20039;-80
2023/10/09 01:39:39;;;;;;;11.80;5.47;;;16.60;99.90;;;;;;5070635;28;20039;-81
2023/10/09 01:42:05;;;;;;;10.18;5.32;;;16.60;99.90;;;;;;5069969;28;20184;-80
2023/10/09 01:44:35;;;;;;;7.97;5.63;;;16.50;99.90;;;;;;5072743;28;20036;-80
2023/10/09 01:47:08;;;;;;;8.85;5.60;;;16.50;99.90;;;;;;5074361;28;20127;-80
2023/10/09 01:49:41;;;;;;;8.07;4.85;;;16.50;99.90;;;;;;5074515;28;20028;-80
2023/10/09 01:52:09;;;;;;;7.25;5.30;;;16.40;99.90;;;;;;5074072;28;20052;-81
2023/10/09 01:54:40;;;;;;;6.75;4.45;;;16.40;99.90;;;;;;5074353;28;20036;-80
2023/10/09 01:57:22;;;;;;;9.55;5.60;;;16.40;99.90;;;;;;5073777;28;20039;-81
2023/10/09 01:59:49;;;;;;;8.88;5.28;;;16.40;99.90;;;;;;5074656;28;20031;-80
2023/10/09 02:02:25;;;;;;;7.18;4.90;;;16.30;99.90;;;;;;5055990;28;20119;-79
2023/10/09 02:04:53;;;;;;;7.68;5.25;;;16.30;99.90;;;;;;5056032;28;20029;-80
2023/10/09 02:07:26;;;;;;;8.18;5.57;;;16.30;99.90;;;;;;5074275;28;20032;-80
2023/10/09 02:09:54;;;;;;;7.55;5.22;;;16.30;99.90;;;;;;5074175;28;20032;-80
2023/10/09 02:12:21;;;;;;;9.43;5.88;;;16.30;99.90;;;;;;5073932;28;20197;-80
2023/10/09 02:14:47;;;;;;;7.95;5.32;;;16.30;99.90;;;;;;5073815;28;20028;-80
2023/10/09 02:17:20;;;;;;;9.20;5.25;;;16.30;99.90;;;;;;5073445;28;20032;-80
2023/10/09 02:19:49;;;;;;;11.07;5.65;;;16.20;99.90;;;;;;5074008;28;20111;-80
2023/10/09 02:22:16;;;;;;;7.47;5.10;;;16.30;99.90;;;;;;5073388;28;20042;-80
2023/10/09 02:24:51;;;;;;;10.40;5.53;;;16.20;99.90;;;;;;5073850;28;20028;-79
2023/10/09 02:27:40;;;;;;;10.15;6.10;;;16.20;99.90;;;;;;5073455;28;20396;-79
2023/10/09 02:30:17;;;;;;;10.93;5.82;;;16.30;99.90;;;;;;5073366;28;20119;-80
2023/10/09 02:32:44;;;;;;;7.90;5.93;;;16.20;99.90;;;;;;5073769;28;20055;-80
2023/10/09 02:37:57;;;;;;;9.20;5.68;;;16.20;99.90;;;;;;5072842;28;20368;-79
2023/10/09 02:40:31;;;;;;;9.50;5.93;;;16.20;99.90;;;;;;5073475;28;20034;-80
2023/10/09 02:42:58;;;;;;;9.73;5.75;;;16.20;99.90;;;;;;5073071;28;20032;-79
2023/10/09 02:45:24;;;;;;;7.70;5.60;;;16.20;99.90;;;;;;5072970;28;20031;-79
2023/10/09 02:47:51;;;;;;;8.52;5.97;;;16.10;99.90;;;;;;5073167;28;20063;-79
2023/10/09 02:50:20;;;;;;;11.43;5.90;;;16.10;99.90;;;;;;5072339;28;20076;-79
2023/10/09 02:52:59;;;;;;;10.10;6.13;;;16.20;99.90;;;;;;5072166;28;20043;-79
2023/10/09 02:55:26;;;;;;;12.13;6.55;;;16.10;99.90;;;;;;5071616;28;20089;-79
2023/10/09 02:58:04;;;;;;;12.80;6.75;;;16.10;99.90;;;;;;5071772;28;20131;-78
2023/10/09 03:00:31;;;;;;;8.30;6.07;;;16.10;99.90;;;;;;5055393;28;20150;-78
2023/10/09 03:02:58;;;;;;;7.78;5.57;;;16.10;99.90;;;;;;5070555;28;20029;-79
2023/10/09 03:05:27;;;;;;;10.50;5.80;;;16.10;99.90;;;;;;5071822;28;20027;-80
2023/10/09 03:07:54;;;;;;;10.13;5.88;;;16.10;99.90;;;;;;5071565;28;20028;-79
2023/10/09 03:10:25;;;;;;;9.45;5.70;;;16.10;99.90;;;;;;5071342;28;20412;-79
2023/10/09 03:12:53;;;;;;;8.93;6.15;;;16.10;99.90;;;;;;5072115;28;20021;-80
2023/10/09 03:15:21;;;;;;;10.95;6.70;;;16.10;99.90;;;;;;5071189;28;20119;-79
2023/10/09 03:17:48;;;;;;;9.73;6.28;;;16.10;99.90;;;;;;5071787;28;20086;-79
2023/10/09 03:20:18;;;;;;;10.63;6.68;;;16.00;99.90;;;;;;5070964;28;20028;-79
2023/10/09 03:22:46;;;;;;;10.13;6.18;;;16.10;99.90;;;;;;5054074;28;20386;-79
2023/10/09 03:25:14;;;;;;;8.70;6.50;;;16.00;99.90;;;;;;5071159;28;20055;-79
2023/10/09 03:27:46;;;;;;;9.68;6.47;;;16.00;99.90;;;;;;5071642;28;20020;-79
2023/10/09 03:30:22;;;;;;;10.52;6.95;;;16.00;99.90;;;;;;5071025;28;20094;-79
2023/10/09 03:32:52;;;;;;;9.57;6.53;;;15.90;99.90;;;;;;5071592;28;20020;-79
2023/10/09 03:35:25;;;;;;;14.65;7.18;;;16.00;99.90;;;;;;5052634;28;20383;-79
2023/10/09 03:37:56;;;;;;;;;;;15.90;99.90;;;;;;5071828;28;20028;-79
2023/10/09 03:40:23;;;;;;;10.43;6.78;;;15.90;99.90;;;;;;5052836;28;20317;-79
2023/10/09 03:42:49;;;;;;;9.07;6.68;;;15.90;99.90;;;;;;5071899;28;20024;-79
2023/10/09 03:45:27;;;;;;;9.57;7.22;;;15.80;99.90;;;;;;5052434;28;20789;-80
2023/10/09 03:48:21;;;;;;;11.10;7.70;;;15.80;99.90;;;;;;5071119;28;20111;-79
2023/10/09 03:50:47;;;;;;;12.60;8.20;;;15.80;99.90;;;;;;5030012;28;1178203;-79
2023/10/09 03:53:13;;;;;;;11.18;8.48;;;15.80;99.90;;;;;;5071301;28;20033;-79
2023/10/09 03:55:40;;;;;;;13.65;8.52;;;15.80;99.90;;;;;;5071878;28;20119;-79
2023/10/09 03:58:11;;;;;;;9.60;7.03;;;15.80;99.90;;;;;;5071529;28;20035;-79
2023/10/09 04:00:46;;;;;;;9.52;7.50;;;15.80;99.90;;;;;;5071880;28;20044;-79
2023/10/09 04:03:13;;;;;;;10.95;8.30;;;15.80;99.90;;;;;;5071498;28;20048;-79
2023/10/09 04:05:43;;;;;;;10.98;7.60;;;15.90;99.90;;;;;;5071299;28;20068;-79
2023/10/09 04:08:13;;;;;;;11.82;7.93;;;15.90;99.90;;;;;;5070790;28;20020;-79
2023/10/09 04:10:51;;;;;;;10.48;7.30;;;15.80;99.90;;;;;;5071762;28;20590;-79
2023/10/09 04:13:22;;;;;;;9.90;7.28;;;15.80;99.90;;;;;;5071433;28;20024;-79
2023/10/09 04:15:53;;;;;;;11.80;8.02;;;15.90;99.90;;;;;;5071545;28;20029;-79
2023/10/09 04:18:20;;;;;;;12.00;8.27;;;15.90;99.90;;;;;;5053044;28;20176;-79
2023/10/09 04:23:59;;;;;;;10.45;7.97;;;15.90;99.90;;;;;;5071602;28;20185;-79
2023/10/09 04:26:24;;;;;;;12.40;8.88;;;15.90;99.90;;;;;;5070505;28;20086;-79
2023/10/09 04:28:52;;;;;;;11.43;8.95;;;15.90;99.90;;;;;;5071334;28;20024;-79
2023/10/09 04:31:21;;;;;;;14.20;9.23;;;15.80;99.90;;;;;;5070887;28;20112;-79
2023/10/09 04:36:46;;;;;;;13.80;9.40;;;15.80;99.90;;;;;;5071293;28;20181;-79
2023/10/09 04:44:24;;;;;;;11.80;8.68;;;15.80;99.90;;;;;;5070648;28;20090;-79
2023/10/09 04:52:51;;;;;;;13.57;9.35;;;15.70;99.90;;;;;;5070341;28;20478;-79
2023/10/09 05:02:58;;;;;;;11.27;9.13;;;15.80;99.90;;;;;;5070809;28;20028;-79
2023/10/09 05:08:28;;;;;;;10.87;7.60;;;15.90;99.90;;;;;;5070307;28;20039;-79
2023/10/09 05:16:15;;;;;;;12.77;9.98;;;15.90;99.90;;;;;;5069717;28;20037;-79
2023/10/09 05:18:44;;;;;;;13.13;9.35;;;15.80;99.90;;;;;;5070508;28;20036;-79
2023/10/09 05:23:48;;;;;;;11.23;9.05;;;15.80;99.90;;;;;;5070859;28;20056;-79
2023/10/09 05:29:18;;;;;;;10.45;7.75;;;15.70;99.90;;;;;;5070524;28;20043;-79
2023/10/09 05:34:33;;;;;;;9.90;7.60;;;15.70;99.90;;;;;;5069894;28;20482;-78
2023/10/09 05:37:17;;;;;;;9.88;7.32;;;15.70;99.90;;;;;;5069883;28;20537;-78
2023/10/09 05:39:58;;;;;;;10.32;7.65;;;15.70;99.90;;;;;;5070030;28;20033;-78
2023/10/09 05:42:28;;;;;;;8.88;6.80;;;15.70;99.90;;;;;;5053892;28;20161;-79
2023/10/09 05:47:47;;;;;;;9.52;7.30;;;15.50;99.90;;;;;;5070203;28;20071;-78
2023/10/09 06:19:08;;;;;;;11.98;9.45;;;15.20;99.90;;;;;;5069764;28;20028;-79
2023/10/09 06:24:19;;;;;;;16.40;9.80;;;15.10;99.90;;;;;;5069720;28;20043;-79
2023/10/09 06:34:52;;;;;;;12.80;8.80;;;15.00;99.90;;;;;;5073734;28;20029;-79
2023/10/09 06:45:05;;;;;;;14.18;9.77;;;14.90;99.90;;;;;;5073530;28;20115;-79
2023/10/09 06:47:40;;;;;;;16.35;11.05;;;14.90;99.90;;;;;;5072938;28;20222;-79
2023/10/09 06:53:58;;;;;;;14.98;11.02;;;14.80;99.90;;;;;;5073221;28;20410;-79
2023/10/09 06:55:48;;;;;;;14.95;11.05;;;14.80;99.90;;;;;;5059464;28;20424;-79
2023/10/09 06:58:27;;;;;;;13.23;9.82;;;14.80;99.90;;;;;;5056375;28;20031;-78
2023/10/09 07:01:19;;;;;;;10.40;9.30;;;14.70;99.90;;;;;;5072947;28;20025;-79
2023/10/09 07:03:52;;;;;;;14.18;10.35;;;14.70;99.90;;;;;;5072980;28;20378;-79
2023/10/09 07:06:29;;;;;;;11.95;8.93;;;14.70;99.90;;;;;;5072114;28;20485;-79
2023/10/09 07:24:58;;;;;;;17.58;11.20;;;14.70;99.90;;;;;;5072174;28;20129;-79
2023/10/09 07:27:43;;;;;;;11.10;9.63;;;14.80;99.90;;;;;;5072199;28;20029;-78
2023/10/09 07:33:06;;;;;;;12.55;10.00;;;14.90;99.90;;;;;;5072402;28;20351;-78
2023/10/09 07:38:20;;;;;;;12.02;9.48;;;15.10;99.90;;;;;;5055639;28;20032;-78
2023/10/09 07:43:39;;;;;;;10.57;8.27;;;15.40;99.90;;;;;;5071526;28;20208;-82
2023/10/09 07:48:53;;;;;;;8.57;7.47;;;15.60;99.90;;;;;;5072029;28;20561;-80
2023/10/09 07:51:31;;;;;;;11.93;8.38;;;15.80;99.90;;;;;;5040055;28;20084;-81
2023/10/09 07:54:07;;;;;;;8.57;7.68;;;15.90;99.90;;;;;;5051830;28;20021;-80
2023/10/09 07:56:45;;;;;;;11.77;8.10;;;16.00;99.90;;;;;;5051311;28;20036;-80
2023/10/09 07:59:18;;;;;;;9.07;7.13;;;16.10;99.90;;;;;;5033947;28;20115;-80
2023/10/09 08:02:02;;;;;;;8.80;7.72;;;16.10;99.90;;;;;;5052034;28;20052;-79
2023/10/09 08:04:37;;;;;;;8.80;6.43;;;16.10;99.90;;;;;;5051430;28;20067;-80
2023/10/09 08:07:25;;;;;;;10.23;7.28;;;16.20;99.90;;;;;;5051792;28;20033;-80
2023/10/09 08:15:51;;;;;;;10.10;6.70;;;16.30;99.90;;;;;;5051736;28;20141;-80
2023/10/09 08:18:09;;;;;;;9.93;6.90;;;16.40;99.90;;;;;;5034503;28;20044;-79
2023/10/09 08:21:19;;;;;;;8.98;6.20;;;16.40;99.90;;;;;;5050944;28;20033;-80
2023/10/09 08:23:49;;;;;;;10.05;7.20;;;16.50;99.90;;;;;;5050170;28;20032;-79
2023/10/09 08:26:28;;;;;;;7.28;6.55;;;16.50;99.90;;;;;;5050870;28;20410;-79
2023/10/09 08:29:15;;;;;;;7.75;6.95;;;16.50;99.90;;;;;;5051237;28;20024;-79
2023/10/09 08:31:56;;;;;;;7.65;6.85;;;16.50;99.90;;;;;;5050963;28;20123;-80
2023/10/09 08:34:25;;;;;;;9.85;7.95;;;16.50;99.90;;;;;;5050538;28;20029;-80
2023/10/09 08:36:52;;;;;;;9.80;7.18;;;16.40;99.90;;;;;;5051258;28;20036;-80
2023/10/09 08:39:27;;;;;;;8.07;6.60;;;16.40;99.90;;;;;;5050822;28;20103;-81
2023/10/09 08:42:01;;;;;;;8.68;7.38;;;16.40;99.90;;;;;;5034521;28;20017;-79
2023/10/09 08:44:29;;;;;;;11.27;8.32;;;16.50;99.90;;;;;;5050820;28;20028;-79
2023/10/09 08:46:57;;;;;;;10.10;7.85;;;16.50;99.90;;;;;;5050841;28;20044;-79
2023/10/09 08:49:23;;;;;;;8.82;7.10;;;16.60;99.90;;;;;;5050547;28;20067;-79
2023/10/09 08:51:52;;;;;;;12.88;7.65;;;16.60;99.90;;;;;;5068251;28;20380;-79
2023/10/09 08:54:18;;;;;;;9.80;7.57;;;16.60;99.90;;;;;;5070039;28;20100;-80
2023/10/09 08:56:52;;;;;;;9.75;7.57;;;16.70;99.90;;;;;;5070251;28;20036;-79
2023/10/09 08:59:19;;;;;;;6.88;5.93;;;16.70;99.90;;;;;;5070269;28;20090;-82
2023/10/09 09:01:50;;;;;;;11.85;6.78;;;16.80;99.90;;;;;;5070593;28;20104;-79
2023/10/09 09:04:38;;;;;;;10.82;7.43;;;16.90;99.90;;;;;;5053084;28;20025;-80
2023/10/09 09:07:05;;;;;;;11.80;6.90;;;17.00;99.90;;;;;;5070837;28;20416;-80
2023/10/09 09:09:33;;;;;;;8.00;6.65;;;17.00;99.90;;;;;;5070177;28;20490;-80
2023/10/09 09:11:59;;;;;;;7.80;6.30;;;17.10;99.90;;;;;;5070459;28;20024;-79
2023/10/09 09:14:38;;;;;;;7.35;5.75;;;17.10;99.90;;;;;;5070385;28;20387;-79
2023/10/09 09:17:10;;;;;;;8.30;6.45;;;17.20;99.90;;;;;;5070729;28;20179;-80
2023/10/09 09:19:38;;;;;;;10.43;6.07;;;17.30;99.90;;;;;;5070322;28;20556;-80
2023/10/09 09:22:12;;;;;;;9.15;6.70;;;17.30;99.90;;;;;;5070787;28;20141;-81
2023/10/09 09:24:39;;;;;;;8.10;6.55;;;17.40;99.90;;;;;;5070176;28;20497;-80
2023/10/09 09:27:20;;;;;;;7.75;6.43;;;17.40;99.90;;;;;;5071579;28;20024;-80
2023/10/09 09:29:53;;;;;;;5.90;4.95;;;17.40;99.90;;;;;;5071641;28;20039;-80
2023/10/09 09:32:35;;;;;;;7.47;5.28;;;17.40;99.90;;;;;;5071185;28;20052;-80
2023/10/09 09:35:05;;;;;;;6.03;5.30;;;17.50;99.90;;;;;;5071469;28;20117;-79
2023/10/09 09:40:28;;;;;;;7.22;6.05;;;17.60;99.90;;;;;;5071156;28;20056;-80
2023/10/09 09:43:04;;;;;;;10.45;6.25;;;17.70;99.90;;;;;;5039611;28;20029;-80
2023/10/09 09:45:35;;;;;;;9.50;5.90;;;17.70;99.90;;;;;;5070275;28;20025;-80
2023/10/09 09:48:06;;;;;;;6.97;5.80;;;17.80;99.90;;;;;;5070447;28;20103;-80
2023/10/09 09:50:38;;;;;;;10.60;6.25;;;17.80;99.90;;;;;;5069416;28;20077;-80
2023/10/09 09:53:08;;;;;;;5.70;4.78;;;17.90;99.90;;;;;;5070284;28;20025;-80
2023/10/09 09:55:41;;;;;;;8.70;5.93;;;18.00;99.90;;;;;;5069065;28;20479;-80
2023/10/09 09:58:18;;;;;;;6.15;5.18;;;18.10;99.90;;;;;;5070448;28;20433;-80
2023/10/09 10:00:45;;;;;;;6.05;4.93;;;18.10;99.90;;;;;;5069584;28;20055;-80
2023/10/09 10:03:18;;;;;;;8.93;5.25;;;18.20;99.90;;;;;;5070289;28;20039;-80
2023/10/09 10:05:46;;;;;;;8.20;5.80;;;18.30;99.90;;;;;;5072174;28;20128;-80
2023/10/09 10:08:20;;;;;;;10.10;6.60;;;18.30;99.90;;;;;;5073893;28;20039;-80
2023/10/09 10:11:13;;;;;;;8.35;5.50;;;18.30;99.90;;;;;;5073730;28;20548;-80
2023/10/09 10:13:41;;;;;;;10.80;6.40;;;18.30;99.90;;;;;;5072571;28;20082;-80
2023/10/09 10:21:49;;;;;;;14.20;9.30;;;18.60;99.90;;;;;;5057418;28;20082;-80
2023/10/09 10:24:51;;;;;;;13.30;8.75;;;18.60;99.90;;;;;;5073407;28;20102;-79
2023/10/09 10:27:26;;;;;;;14.25;8.13;;;18.60;99.90;;;;;;5073235;28;20048;-79
2023/10/09 10:30:13;;;;;;;10.13;7.25;;;18.60;99.90;;;;;;5073247;28;20116;-80
2023/10/09 10:33:09;;;;;;;12.55;7.05;;;18.70;99.90;;;;;;5072751;28;20143;-80
2023/10/09 10:35:54;;;;;;;10.55;7.35;;;18.80;99.90;;;;;;5056027;28;20028;-80
2023/10/09 10:38:36;;;;;;;12.48;7.30;;;18.80;99.90;;;;;;5073423;28;20093;-80
2023/10/09 10:41:19;;;;;;;11.82;7.30;;;18.90;99.90;;;;;;5073547;28;20044;-80
2023/10/09 10:43:47;;;;;;;;;;;18.90;99.90;;;;;;5073655;28;20089;-80
2023/10/09 10:48:59;;;;;;;11.15;6.72;;;19.10;99.90;;;;;;5073417;28;20025;-79
2023/10/09 10:51:40;;;;;;;13.35;7.82;;;19.20;99.90;;;;;;5072757;28;20101;-79
2023/10/09 10:56:51;;;;;;;8.65;6.85;;;19.30;99.90;;;;;;5073703;28;20071;-80
2023/10/09 10:59:24;;;;;;;12.45;7.60;;;19.30;99.90;;;;;;5073257;28;20386;-79
2023/10/09 11:01:53;;;;;;;11.68;6.53;;;19.20;99.90;;;;;;5072366;28;20020;-79
2023/10/09 11:07:24;;;;;;;10.05;6.22;;;19.20;99.90;;;;;;5073151;28;20438;-79
2023/10/09 11:15:45;;;;;;;8.32;5.65;;;19.20;99.90;;;;;;5071955;28;20116;-80
2023/10/09 11:18:27;;;;;;;9.32;6.57;;;19.20;99.90;;;;;;5073020;28;20108;-80
2023/10/09 11:21:40;;;;;;;7.85;5.82;;;19.20;99.90;;;;;;5073152;28;20031;-79
2023/10/09 11:26:21;;;;;;;17.42;6.95;;;19.40;99.90;;;;;;5072790;28;20051;-80
2023/10/09 11:29:12;;;;;;;12.45;8.23;;;19.40;99.90;;;;;;5072113;28;20032;-80
2023/10/09 11:31:40;;;;;;;8.98;5.75;;;19.40;99.90;;;;;;5071540;28;20149;-79
2023/10/09 11:34:28;;;;;;;10.70;6.28;;;19.40;99.90;;;;;;5072022;28;20094;-79
2023/10/09 11:36:56;;;;;;;14.55;7.85;;;19.50;99.90;;;;;;5071235;28;20090;-79
2023/10/09 11:39:37;;;;;;;8.30;5.82;;;19.60;99.90;;;;;;5072115;28;20051;-79
2023/10/09 11:42:07;;;;;;;8.07;5.90;;;19.60;99.90;;;;;;5072084;28;20033;-79
2023/10/09 11:44:45;;;;;;;10.35;7.38;;;19.60;99.90;;;;;;5071928;28;20094;-79
2023/10/09 11:52:46;;;;;;;9.77;6.77;;;19.70;99.90;;;;;;5052313;28;20206;-79
2023/10/09 11:55:14;;;;;;;10.15;6.35;;;19.70;99.90;;;;;;5051448;28;20058;-80
2023/10/09 11:57:41;;;;;;;13.43;6.57;;;19.70;99.90;;;;;;5030108;28;20044;-79
2023/10/09 12:00:11;;;;;;;10.85;6.63;;;19.70;99.90;;;;;;5052014;28;20068;-79
2023/10/09 12:02:43;;;;;;;10.30;6.10;;;19.80;99.90;;;;;;5046423;28;20475;-79
2023/10/09 12:05:16;;;;;;;20.05;7.65;;;19.90;99.90;;;;;;5051141;28;20427;-79
2023/10/09 12:07:46;;;;;;;10.82;7.38;;;19.90;99.90;;;;;;5040083;28;20047;-79
2023/10/09 12:10:13;;;;;;;11.15;6.63;;;19.90;99.90;;;;;;5052353;28;20036;-79
2023/10/09 12:12:46;;;;;;;11.40;7.55;;;20.10;99.90;;;;;;5051344;28;20053;-80
2023/10/09 12:15:17;;;;;;;;;;;20.10;99.90;;;;;;5034344;28;20033;-79
2023/10/09 12:17:44;;;;;;;10.38;6.70;;;20.10;99.90;;;;;;5051363;28;19939;-79
2023/10/09 12:20:31;;;;;;;10.60;6.82;;;20.10;99.90;;;;;;5051842;28;20426;-80
2023/10/09 12:23:04;;;;;;;16.70;7.60;;;20.10;99.90;;;;;;5051713;28;20021;-79
2023/10/09 12:25:31;;;;;;;;;;;20.10;99.90;;;;;;5051673;28;20352;-79
2023/10/09 12:27:57;;;;;;;9.15;6.18;;;20.20;99.90;;;;;;5050919;28;19905;-79
2023/10/09 12:30:26;;;;;;;11.98;6.50;;;20.10;99.90;;;;;;5051439;28;20168;-79
2023/10/09 12:32:57;;;;;;;9.15;5.97;;;20.20;99.90;;;;;;5050756;28;20059;-79
2023/10/09 12:35:27;;;;;;;13.15;7.00;;;20.30;99.90;;;;;;5051817;28;20100;-80
2023/10/09 12:37:54;;;;;;;10.63;5.43;;;20.40;99.90;;;;;;5050761;28;20112;-80
2023/10/09 12:40:24;;;;;;;7.80;5.50;;;20.40;99.90;;;;;;5051271;28;20021;-80
2023/10/09 12:42:52;;;;;;;8.65;4.93;;;20.40;99.90;;;;;;5051008;28;20104;-80
2023/10/09 12:45:20;;;;;;;12.77;5.72;;;20.50;99.90;;;;;;5050940;28;20559;-80
2023/10/09 12:47:47;;;;;;;11.45;5.68;;;20.50;99.90;;;;;;5050380;28;20087;-80
2023/10/09 12:50:14;;;;;;;7.95;5.20;;;20.70;99.90;;;;;;5055216;28;20055;-79
2023/10/09 12:52:40;;;;;;;8.02;5.15;;;20.70;99.90;;;;;;5070339;28;20136;-80
2023/10/09 12:55:09;;;;;;;10.30;5.63;;;20.80;99.90;;;;;;5071051;28;20136;-80
2023/10/09 12:57:36;;;;;;;11.13;5.15;;;20.80;99.90;;;;;;5070067;28;20064;-80
2023/10/09 13:00:10;;;;;;;10.32;5.53;;;20.90;99.90;;;;;;5052805;28;20450;-80
2023/10/09 13:02:36;;;;;;;8.73;4.65;;;21.00;99.90;;;;;;5070415;28;20128;-80
2023/10/09 13:05:05;;;;;;;13.82;6.00;;;21.10;99.90;;;;;;5052535;28;20040;-80
2023/10/09 13:07:31;;;;;;;17.42;7.35;;;21.20;99.90;;;;;;5070491;28;20036;-80
2023/10/09 13:10:09;;;;;;;10.38;5.40;;;21.30;99.90;;;;;;5070070;28;20029;-80
2023/10/09 13:12:41;;;;;;;9.40;5.57;;;21.50;99.90;;;;;;5070055;28;20028;-80
2023/10/09 13:15:11;;;;;;;6.85;4.90;;;21.50;99.90;;;;;;5070666;28;20027;-80
2023/10/09 13:17:37;;;;;;;10.48;6.03;;;21.40;99.90;;;;;;5051798;28;20455;-80
2023/10/09 13:20:12;;;;;;;7.95;5.60;;;21.40;99.90;;;;;;5070512;28;20021;-80
2023/10/09 13:22:42;;;;;;;8.77;6.03;;;21.30;99.90;;;;;;5069643;28;20344;-80
2023/10/09 13:25:17;;;;;;;10.15;6.30;;;21.20;99.90;;;;;;5070780;28;20036;-79
2023/10/09 13:27:50;;;;;;;13.27;6.72;;;21.20;99.90;;;;;;5069798;28;20048;-80
2023/10/09 13:30:23;;;;;;;13.73;6.30;;;21.10;99.90;;;;;;5070773;28;20085;-80
2023/10/09 13:32:50;;;;;;;11.38;5.90;;;21.00;99.90;;;;;;5069078;28;20489;-80
2023/10/09 13:35:18;;;;;;;8.48;5.80;;;21.10;99.90;;;;;;5070164;28;20035;-79
2023/10/09 13:37:47;;;;;;;12.50;5.85;;;21.10;99.90;;;;;;5069276;28;20037;-80
2023/10/09 13:40:26;;;;;;;9.63;6.10;;;21.10;99.90;;;;;;5073560;28;20392;-80
2023/10/09 13:42:58;;;;;;;8.65;6.43;;;21.00;99.90;;;;;;5074797;28;20129;-80
2023/10/09 13:45:27;;;;;;;9.02;5.50;;;21.10;99.90;;;;;;5075336;28;20029;-80
2023/10/09 13:47:56;;;;;;;9.65;6.38;;;21.10;99.90;;;;;;5074703;28;20060;-80
2023/10/09 13:50:32;;;;;;;11.25;5.05;;;21.10;99.90;;;;;;5075966;28;20040;-79
2023/10/09 13:52:57;;;;;;;10.52;5.55;;;21.20;99.90;;;;;;5075065;28;20028;-80
2023/10/09 13:55:31;;;;;;;10.75;6.78;;;21.10;99.90;;;;;;5076671;28;20435;-79
2023/10/09 13:57:57;;;;;;;10.43;6.03;;;21.00;99.90;;;;;;5077201;28;20094;-79
2023/10/09 14:00:33;;;;;;;11.98;5.78;;;20.90;99.90;;;;;;5075090;28;20482;-79
2023/10/09 14:03:11;;;;;;;10.55;7.00;;;20.80;99.90;;;;;;5077141;28;20021;-80
2023/10/09 14:05:51;;;;;;;8.20;5.68;;;20.80;99.90;;;;;;5077527;28;20038;-80
2023/10/09 14:08:18;;;;;;;11.50;6.65;;;20.80;99.90;;;;;;5074330;28;20115;-80
2023/10/09 14:10:48;;;;;;;8.32;6.18;;;20.70;99.90;;;;;;5073367;28;20412;-79
2023/10/09 14:13:16;;;;;;;9.80;6.38;;;20.70;99.90;;;;;;5075744;28;20017;-80
2023/10/09 14:15:43;;;;;;;11.85;7.30;;;20.80;99.90;;;;;;5056423;28;20064;-79
2023/10/09 14:18:11;;;;;;;13.48;7.45;;;20.70;99.90;;;;;;5077059;28;20071;-79
2023/10/09 14:20:38;;;;;;;11.13;6.53;;;20.70;99.90;;;;;;5074351;28;20024;-79
2023/10/09 14:23:06;;;;;;;12.23;8.05;;;20.70;99.90;;;;;;5075058;28;20487;-79
2023/10/09 14:25:47;;;;;;;11.77;7.38;;;20.60;99.90;;;;;;5073711;28;20479;-80
2023/10/09 14:28:18;;;;;;;7.63;6.38;;;20.40;99.90;;;;;;5074118;28;20025;-79
2023/10/09 14:30:47;;;;;;;12.43;6.78;;;20.40;99.90;;;;;;5073985;28;20025;-79
2023/10/09 14:33:13;;;;;;;57.17;10.20;;;20.40;99.90;;;;;;5072952;28;20459;-80
2023/10/09 14:35:42;;;;;;;10.05;6.10;;;20.30;99.90;;;;;;5074760;28;20027;-81
2023/10/09 14:38:15;;;;;;;9.43;5.70;;;20.20;99.90;;;;;;5076921;28;20036;-80
2023/10/09 14:40:41;;;;;;;8.07;6.10;;;20.20;99.90;;;;;;5073907;28;20371;-79
2023/10/09 14:43:08;;;;;;;6.88;5.30;;;20.20;99.90;;;;;;5055686;28;20021;-78
2023/10/09 14:45:37;;;;;;;9.45;6.40;;;20.10;99.90;;;;;;5073658;28;20032;-79
2023/10/09 14:48:03;;;;;;;14.95;6.75;;;20.10;99.90;;;;;;5073625;28;20462;-80
2023/10/09 14:50:29;;;;;;;12.40;6.38;;;20.10;99.90;;;;;;5072715;28;20358;-80
2023/10/09 14:52:55;;;;;;;11.85;6.97;;;20.10;99.90;;;;;;5071693;28;20025;-80
2023/10/09 14:55:28;;;;;;;11.30;6.50;;;20.10;99.90;;;;;;5073025;28;20028;-80
2023/10/09 14:57:55;;;;;;;8.55;6.50;;;19.90;99.90;;;;;;5072537;28;20032;-79
2023/10/09 15:00:23;;;;;;;12.05;7.63;;;19.90;99.90;;;;;;5072438;28;20029;-79
2023/10/09 15:02:53;;;;;;;10.05;6.78;;;19.80;99.90;;;;;;5071570;28;20075;-79
2023/10/09 15:05:18;;;;;;;8.85;6.72;;;19.70;99.90;;;;;;5072147;28;20464;-79
2023/10/09 15:07:45;;;;;;;8.23;5.35;;;19.70;99.90;;;;;;5071366;28;20105;-79
2023/10/09 15:10:15;;;;;;;8.35;5.97;;;19.60;99.90;;;;;;5072550;28;20078;-79
2023/10/09 15:12:42;;;;;;;10.50;6.07;;;19.70;99.90;;;;;;5061774;28;20531;-80
2023/10/09 15:15:15;;;;;;;8.80;6.53;;;19.70;99.90;;;;;;5052784;28;20032;-79
2023/10/09 15:17:47;;;;;;;8.30;5.97;;;19.70;99.90;;;;;;5033016;28;20079;-80
2023/10/09 15:20:14;;;;;;;8.25;6.40;;;19.70;99.90;;;;;;5053342;28;20036;-79
2023/10/09 15:22:44;;;;;;;10.50;7.45;;;19.70;99.90;;;;;;5053805;28;20107;-80
2023/10/09 15:25:17;;;;;;;10.63;8.18;;;19.80;99.90;;;;;;5051866;28;20021;-80
2023/10/09 15:27:45;;;;;;;12.80;8.07;;;19.70;99.90;;;;;;5051393;28;20100;-79
2023/10/09 15:30:16;;;;;;;10.93;7.22;;;19.70;99.90;;;;;;5052298;28;20033;-80
2023/10/09 15:32:43;;;;;;;12.77;7.93;;;19.70;99.90;;;;;;5033250;28;20035;-80
2023/10/09 15:35:12;;;;;;;12.38;8.45;;;19.60;99.90;;;;;;5051907;28;20040;-80
2023/10/09 15:37:40;;;;;;;10.65;7.85;;;19.70;99.90;;;;;;5051838;28;20037;-79
2023/10/09 15:40:13;;;;;;;15.52;8.32;;;19.70;99.90;;;;;;5052083;28;20060;-79
2023/10/09 15:42:43;;;;;;;11.40;8.15;;;19.70;99.90;;;;;;5052056;28;20043;-80
2023/10/09 15:45:09;;;;;;;10.27;8.32;;;19.70;99.90;;;;;;5051564;28;20029;-80
2023/10/09 15:47:36;;;;;;;13.65;8.18;;;19.60;99.90;;;;;;5052029;28;20033;-79
2023/10/09 15:50:09;;;;;;;10.60;8.40;;;19.50;99.90;;;;;;5049561;28;20391;-78
2023/10/09 15:52:34;;;;;;;;;;;19.40;99.90;;;;;;5052309;28;20439;-78
2023/10/09 15:55:00;;;;;;;12.75;8.57;;;19.40;99.90;;;;;;5033119;28;19904;-80